createdAt,value
2023-02-03T00:00:06.944Z,5.75
2023-02-03T00:07:12.761Z,6.97
2023-02-03T00:14:14.308Z,8.20
2023-02-03T00:21:16.273Z,7.07
2023-02-03T00:28:18.006Z,6.07
2023-02-03T00:35:19.610Z,11.43
2023-02-03T00:42:21.211Z,7.25
2023-02-03T00:49:22.911Z,6.30
2023-02-03T00:56:24.667Z,16.33
2023-02-03T01:03:26.221Z,9.70
2023-02-03T01:10:28.581Z,7.93
2023-02-03T01:17:30.318Z,8.05
2023-02-03T01:24:31.886Z,4.65
2023-02-03T01:31:35.290Z,11.27
2023-02-03T01:38:37.232Z,9.05
2023-02-03T01:45:38.835Z,11.98
2023-02-03T01:52:44.245Z,10.27
2023-02-03T01:59:45.886Z,9.43
2023-02-03T02:06:48.754Z,7.00
2023-02-03T02:13:51.552Z,9.90
2023-02-03T02:21:14.674Z,5.25
2023-02-03T02:28:53.589Z,8.15
2023-02-03T02:36:15.156Z,7.30
2023-02-03T02:43:22.740Z,8.07
2023-02-03T02:50:25.743Z,6.95
2023-02-03T02:57:28.021Z,12.13
2023-02-03T03:04:31.287Z,7.18
2023-02-03T03:11:37.563Z,4.63
2023-02-03T03:18:44.266Z,5.45
2023-02-03T03:25:55.290Z,5.80
2023-02-03T03:32:58.464Z,7.40
2023-02-03T03:40:01.237Z,3.20
2023-02-03T03:47:14.562Z,5.93
2023-02-03T03:54:17.630Z,4.68
2023-02-03T04:01:19.231Z,5.97
2023-02-03T04:08:20.928Z,3.90
2023-02-03T04:15:22.432Z,4.65
2023-02-03T04:22:23.973Z,8.65
2023-02-03T04:29:25.490Z,5.28
2023-02-03T04:36:27.068Z,7.00
2023-02-03T04:43:28.608Z,12.85
2023-02-03T04:50:30.931Z,7.07
2023-02-03T04:57:32.492Z,9.10
2023-02-03T05:04:34.119Z,10.05
2023-02-03T05:11:35.644Z,13.75
2023-02-03T05:18:37.163Z,14.15
2023-02-03T05:25:38.694Z,14.75
2023-02-03T05:32:40.292Z,20.13
2023-02-03T05:39:41.881Z,17.70
2023-02-03T05:46:43.431Z,15.57
2023-02-03T05:53:45.061Z,25.80
2023-02-03T06:00:47.119Z,16.13
2023-02-03T06:07:49.438Z,27.17
2023-02-03T06:15:02.450Z,28.92
2023-02-03T06:22:04.007Z,28.48
2023-02-03T06:29:05.527Z,27.10
2023-02-03T06:36:07.252Z,25.10
2023-02-03T06:43:08.836Z,25.58
2023-02-03T06:50:11.655Z,25.15
2023-02-03T06:57:13.174Z,24.08
2023-02-03T07:04:14.735Z,22.05
2023-02-03T07:11:16.303Z,22.67
2023-02-03T07:18:43.480Z,15.77
2023-02-03T07:25:40.623Z,15.15
2023-02-03T07:32:42.170Z,20.70
2023-02-03T07:39:44.051Z,20.42
2023-02-03T07:46:45.707Z,24.13
2023-02-03T07:53:47.315Z,21.02
2023-02-03T08:00:48.817Z,21.85
2023-02-03T08:07:50.410Z,13.82
2023-02-03T08:14:52.073Z,15.95
2023-02-03T08:21:53.573Z,21.17
2023-02-03T08:28:55.100Z,11.23
2023-02-03T08:35:56.943Z,14.10
2023-02-03T08:42:58.557Z,14.43
2023-02-03T08:50:00.169Z,10.38
2023-02-03T08:57:01.697Z,10.18
2023-02-03T09:04:04.200Z,12.25
2023-02-03T09:11:10.231Z,11.68
2023-02-03T09:18:11.757Z,9.73
2023-02-03T09:25:13.848Z,10.32
2023-02-03T09:32:15.879Z,7.40
2023-02-03T09:39:17.538Z,9.68
2023-02-03T09:46:19.976Z,8.20
2023-02-03T09:53:30.827Z,7.75
2023-02-03T10:00:52.572Z,9.65
2023-02-03T10:08:01.765Z,10.30
2023-02-03T10:15:09.248Z,7.63
2023-02-03T10:22:13.965Z,9.23
2023-02-03T10:29:42.541Z,8.00
2023-02-03T10:36:56.388Z,8.20
2023-02-03T10:43:58.024Z,7.47
2023-02-03T10:50:59.640Z,10.90
2023-02-03T10:58:06.504Z,18.63
2023-02-03T11:05:18.894Z,7.03
2023-02-03T11:12:20.395Z,11.93
2023-02-03T11:19:22.101Z,7.20
2023-02-03T11:26:35.216Z,10.05
2023-02-03T11:33:36.767Z,18.15
2023-02-03T11:40:40.111Z,8.73
2023-02-03T11:47:49.401Z,12.30
2023-02-03T11:55:00.235Z,10.23
2023-02-03T12:02:36.493Z,15.70
2023-02-03T12:10:01.042Z,12.93
2023-02-03T12:17:31.479Z,11.20
2023-02-03T12:25:00.738Z,22.73
2023-02-03T12:32:14.301Z,19.63
2023-02-03T12:39:38.569Z,25.02
2023-02-03T12:46:45.059Z,20.13
2023-02-03T12:53:49.029Z,24.83
2023-02-03T13:00:54.502Z,10.60
2023-02-03T13:08:06.458Z,4.20
2023-02-03T13:15:45.834Z,7.35
2023-02-03T13:22:47.554Z,10.70
2023-02-03T13:30:21.242Z,11.48
2023-02-03T13:37:29.710Z,10.40
2023-02-03T13:44:31.260Z,6.78
2023-02-03T13:51:37.602Z,12.10
2023-02-03T13:58:39.465Z,12.82
2023-02-03T14:05:52.069Z,20.55
2023-02-03T14:12:53.516Z,12.43
2023-02-03T14:19:55.684Z,16.25
2023-02-03T14:26:57.407Z,12.55
2023-02-03T14:34:09.339Z,12.50
2023-02-03T14:41:10.909Z,20.42
2023-02-03T14:48:37.732Z,18.48
2023-02-03T14:56:06.678Z,17.90
2023-02-03T15:03:11.436Z,15.40
2023-02-03T15:10:17.059Z,25.67
2023-02-03T15:17:28.085Z,14.95
2023-02-03T15:24:35.724Z,19.98
2023-02-03T15:31:42.887Z,21.35
2023-02-03T15:38:55.720Z,20.75
2023-02-03T15:46:27.864Z,17.95
2023-02-03T15:53:45.316Z,18.15
2023-02-03T16:00:50.565Z,16.17
2023-02-03T16:07:52.364Z,16.52
2023-02-03T16:14:54.743Z,10.88
2023-02-03T16:21:57.131Z,19.73
2023-02-03T16:29:23.323Z,12.27
2023-02-03T16:36:43.154Z,16.90
2023-02-03T16:44:03.530Z,10.03
2023-02-03T16:51:07.478Z,15.43
2023-02-03T16:58:11.226Z,15.52
2023-02-03T17:05:12.791Z,22.30
2023-02-03T17:12:14.324Z,19.45
2023-02-03T17:19:15.920Z,13.13
2023-02-03T17:26:17.607Z,12.75
2023-02-03T17:33:19.123Z,16.98
2023-02-03T17:54:59.258Z,22.13
2023-02-03T18:02:01.163Z,11.05
2023-02-03T18:09:06.828Z,16.40
2023-02-03T18:16:09.977Z,14.70
2023-02-03T18:23:11.578Z,15.52
2023-02-03T18:30:14.907Z,14.23
2023-02-03T18:37:16.499Z,17.92
2023-02-03T18:44:18.237Z,13.85
2023-02-03T18:51:20.788Z,12.88
2023-02-03T18:58:22.433Z,15.73
2023-02-03T19:05:23.969Z,15.75
2023-02-03T19:12:26.293Z,16.80
2023-02-03T19:19:27.818Z,14.90
2023-02-03T19:26:29.417Z,9.80
2023-02-03T19:33:30.983Z,10.82
2023-02-03T19:40:32.528Z,10.52
2023-02-03T19:47:34.180Z,10.27
2023-02-03T19:54:36.043Z,13.85
2023-02-03T20:01:37.622Z,11.45
2023-02-03T20:08:39.209Z,22.55
2023-02-03T20:15:41.024Z,14.48
2023-02-03T20:22:42.598Z,9.95
2023-02-03T20:29:44.453Z,14.18
2023-02-03T20:36:45.993Z,10.68
2023-02-03T20:43:47.496Z,8.77
2023-02-03T20:50:50.140Z,9.75
2023-02-03T20:57:54.654Z,6.72
2023-02-03T21:04:59.075Z,5.82
2023-02-03T21:12:00.676Z,5.80
2023-02-03T21:19:03.251Z,3.90
2023-02-03T21:26:25.298Z,3.60
2023-02-03T21:33:29.948Z,3.88
2023-02-03T21:40:33.331Z,3.78
2023-02-03T21:47:34.957Z,3.63
2023-02-03T21:54:41.578Z,5.13
2023-02-03T22:01:43.126Z,5.55
2023-02-03T22:08:48.950Z,5.07
2023-02-03T22:15:50.499Z,4.50
2023-02-03T22:22:52.077Z,4.38
2023-02-03T22:29:56.306Z,4.32
2023-02-03T22:36:57.819Z,5.20
2023-02-03T22:43:59.412Z,6.20
2023-02-03T22:51:01.363Z,16.10
2023-02-03T22:58:03.173Z,15.27
2023-02-03T23:05:05.764Z,36.03
2023-02-03T23:12:07.323Z,43.38
2023-02-03T23:19:08.825Z,18.08
2023-02-03T23:26:10.433Z,32.78
2023-02-03T23:33:11.989Z,6.72
2023-02-03T23:40:13.591Z,5.43
2023-02-03T23:47:15.186Z,7.90
2023-02-03T23:54:16.771Z,6.80
